Time;durP1;ratioP1;P1;durP2;ratioP2;P2;SDS_P1;SDS_P2;PMS_P1;PMS_P2;Temp;Humidity;BMP_temperature;BMP_pressure;BME280_temperature;BME280_humidity;BME280_pressure;Samples;Min_cycle;Max_cycle;Signal;HPM_P1;HPM_P2
2021/07/05 00:01:03;;;;;;;;;;;;;;;19.81;56.47;100296.80;1650889;85;20154;-76
2021/07/05 00:03:29;;;;;;;;;;;;;;;19.78;56.51;100290.41;1650566;86;20555;-76
2021/07/05 00:05:55;;;;;;;;;;;;;;;19.76;56.62;100288.34;1649853;87;20256;-76
2021/07/05 00:08:21;;;;;;;;;;;;;;;19.77;56.69;100292.66;1649758;85;20871;-76
2021/07/05 00:10:47;;;;;;;;;;;;;;;19.76;56.75;100285.73;1649382;86;20192;-76
2021/07/05 00:13:13;;;;;;;;;;;;;;;19.74;56.72;100290.25;1633263;87;20843;-76
2021/07/05 00:15:41;;;;;;;;;;;;;;;19.74;56.80;100286.78;1649562;86;20190;-76
2021/07/05 00:18:08;;;;;;;;;;;;;;;19.73;56.87;100285.94;1649374;85;20478;-76
2021/07/05 00:20:40;;;;;;;;;;;;;;;19.72;56.87;100285.56;1650105;86;20222;-76
2021/07/05 00:23:13;;;;;;;;;;;;;;;19.68;56.91;100284.52;1649608;86;20197;-76
2021/07/05 00:25:40;;;;;;;;;;;;;;;19.60;57.04;100288.91;1651157;85;20551;-76
2021/07/05 00:28:06;;;;;;;;;;;;;;;19.60;57.09;100285.44;1630515;87;20237;-76
2021/07/05 00:30:34;;;;;;;;;;;;;;;19.60;57.17;100289.37;1649613;86;20197;-77
2021/07/05 00:33:00;;;;;;;;;;;;;;;19.60;57.23;100291.52;1647736;85;20130;-76
2021/07/05 00:35:26;;;;;;;;;;;;;;;19.59;57.27;100294.23;1647281;87;20221;-76
2021/07/05 00:37:54;;;;;;;;;;;;;;;19.58;57.35;100295.17;1649604;86;20134;-76
2021/07/05 00:40:21;;;;;;;;;;;;;;;19.56;57.37;100294.41;1630320;85;20221;-76
2021/07/05 00:42:47;;;;;;;;;;;;;;;19.52;57.43;100298.99;1641700;86;20446;-75
2021/07/05 00:45:14;;;;;;;;;;;;;;;19.51;57.46;100297.30;1641856;86;20389;-75
2021/07/05 00:47:40;;;;;;;;;;;;;;;19.50;57.51;100295.58;1642100;86;20127;-75
2021/07/05 00:50:08;;;;;;;;;;;;;;;19.50;57.61;100295.12;1641544;86;20520;-75
2021/07/05 00:52:35;;;;;;;;;;;;;;;19.51;57.67;100294.68;1641945;86;20102;-75
2021/07/05 00:55:06;;;;;;;;;;;;;;;19.50;57.68;100293.80;1614355;87;20110;-75
2021/07/05 00:57:31;;;;;;;;;;;;;;;19.49;57.73;100288.18;1641033;86;20114;-75
2021/07/05 00:59:58;;;;;;;;;;;;;;;19.49;57.73;100288.64;1641699;87;20753;-76
2021/07/05 01:02:26;;;;;;;;;;;;;;;19.49;57.80;100287.34;1643620;86;20545;-76
2021/07/05 01:04:52;;;;;;;;;;;;;;;19.47;57.76;100282.18;1640875;86;20425;-76
2021/07/05 01:07:21;;;;;;;;;;;;;;;19.41;57.85;100286.47;1641995;86;20139;-76
2021/07/05 01:09:47;;;;;;;;;;;;;;;19.40;57.91;100286.09;1640023;87;20560;-76
2021/07/05 01:12:19;;;;;;;;;;;;;;;19.35;58.00;100285.97;1639795;86;20552;-76
2021/07/05 01:14:45;;;;;;;;;;;;;;;19.33;58.16;100278.66;1639960;86;20196;-76
2021/07/05 01:17:13;;;;;;;;;;;;;;;19.32;58.24;100284.84;1639168;86;20170;-76
2021/07/05 01:19:43;;;;;;;;;;;;;;;19.31;58.38;100280.06;1635713;86;20213;-76
2021/07/05 01:22:10;;;;;;;;;;;;;;;19.30;58.37;100283.61;1639790;86;20571;-76
2021/07/05 01:24:37;;;;;;;;;;;;;;;19.30;58.38;100284.92;1640697;86;20550;-76
2021/07/05 01:27:04;;;;;;;;;;;;;;;19.25;58.50;100288.27;1639794;86;20444;-76
2021/07/05 01:29:30;;;;;;;;;;;;;;;19.24;58.65;100281.81;1639637;86;20620;-76
2021/07/05 01:31:57;;;;;;;;;;;;;;;19.23;58.71;100284.08;1639108;86;20182;-76
2021/07/05 01:34:24;;;;;;;;;;;;;;;19.22;58.69;100278.00;1641834;86;20623;-76
2021/07/05 01:36:50;;;;;;;;;;;;;;;19.24;58.76;100282.66;1639527;86;20655;-76
2021/07/05 01:39:17;;;;;;;;;;;;;;;19.23;58.76;100277.06;1640020;86;20189;-76
2021/07/05 01:41:44;;;;;;;;;;;;;;;19.21;58.82;100283.33;1615601;88;20170;-76
2021/07/05 01:44:10;;;;;;;;;;;;;;;19.19;58.82;100282.10;1629078;86;20189;-75
2021/07/05 01:46:36;;;;;;;;;;;;;;;19.20;59.00;100284.25;1627830;86;20219;-75
2021/07/05 01:49:03;;;;;;;;;;;;;;;19.20;58.98;100294.28;1622746;88;20280;-75
2021/07/05 01:51:29;;;;;;;;;;;;;;;19.21;59.12;100285.95;1629309;87;20154;-75
2021/07/05 01:53:55;;;;;;;;;;;;;;;19.21;59.08;100285.48;1628940;86;20557;-75
2021/07/05 01:56:21;;;;;;;;;;;;;;;19.17;59.25;100282.66;1628423;88;20193;-75
2021/07/05 01:58:47;;;;;;;;;;;;;;;19.15;59.38;100281.43;1629229;86;20185;-75
2021/07/05 02:01:13;;;;;;;;;;;;;;;19.17;59.39;100278.26;1624205;86;20451;-75
2021/07/05 02:03:39;;;;;;;;;;;;;;;19.21;59.48;100280.70;1631014;86;20229;-75
2021/07/05 02:06:05;;;;;;;;;;;;;;;19.23;59.42;100281.46;1629057;86;20184;-75
2021/07/05 02:08:31;;;;;;;;;;;;;;;19.26;59.42;100285.19;1629263;86;20185;-75
2021/07/05 02:10:57;;;;;;;;;;;;;;;19.26;59.44;100284.72;1626773;86;20864;-75
2021/07/05 02:13:27;;;;;;;;;;;;;;;19.25;59.46;100280.41;1628542;86;20293;-75
2021/07/05 02:15:55;;;;;;;;;;;;;;;19.25;59.46;100279.56;1628583;86;20150;-75
2021/07/05 02:18:22;;;;;;;;;;;;;;;19.22;59.59;100277.16;1625702;86;20216;-75
2021/07/05 02:20:48;;;;;;;;;;;;;;;19.21;59.59;100276.77;1629077;88;20218;-75
2021/07/05 02:23:16;;;;;;;;;;;;;;;19.19;59.61;100275.55;1621248;86;20512;-75
2021/07/05 02:25:42;;;;;;;;;;;;;;;19.18;59.61;100279.09;1619830;86;20217;-75
2021/07/05 02:28:16;;;;;;;;;;;;;;;19.16;59.65;100274.41;1616864;88;20186;-75
2021/07/05 02:30:43;;;;;;;;;;;;;;;19.14;59.67;100266.63;1630663;86;20126;-75
2021/07/05 02:33:10;;;;;;;;;;;;;;;19.11;59.68;100262.03;1627834;86;20192;-75
2021/07/05 02:35:37;;;;;;;;;;;;;;;19.11;59.81;100268.12;1619201;87;20306;-75
2021/07/05 02:38:05;;;;;;;;;;;;;;;19.10;59.87;100273.45;1628791;88;20214;-75
2021/07/05 02:40:33;;;;;;;;;;;;;;;19.10;59.90;100281.31;1631434;86;20090;-75
2021/07/05 02:42:59;;;;;;;;;;;;;;;19.07;59.95;100277.08;1637246;86;20111;-75
2021/07/05 02:45:27;;;;;;;;;;;;;;;19.04;59.97;100277.26;1641697;86;20122;-75
2021/07/05 02:47:56;;;;;;;;;;;;;;;19.01;59.97;100272.19;1642218;87;20091;-75
2021/07/05 02:50:22;;;;;;;;;;;;;;;19.01;60.01;100270.03;1642161;86;20141;-76
2021/07/05 02:52:49;;;;;;;;;;;;;;;18.98;60.09;100271.05;1639570;86;20205;-77
2021/07/05 02:55:15;;;;;;;;;;;;;;;18.96;60.06;100266.83;1639085;86;20190;-76
2021/07/05 02:57:45;;;;;;;;;;;;;;;18.92;60.09;100262.69;1624761;86;20501;-76
2021/07/05 03:00:15;;;;;;;;;;;;;;;18.90;60.20;100265.86;1639381;87;20174;-76
2021/07/05 03:02:48;;;;;;;;;;;;;;;18.87;60.25;100265.56;1640150;86;20147;-76
2021/07/05 03:05:16;;;;;;;;;;;;;;;18.87;60.34;100275.20;1641841;85;20129;-76
2021/07/05 03:07:43;;;;;;;;;;;;;;;18.85;60.38;100280.52;1640306;86;20189;-76
2021/07/05 03:10:11;;;;;;;;;;;;;;;18.80;60.31;100275.53;1641046;87;20461;-76
2021/07/05 03:12:37;;;;;;;;;;;;;;;18.72;60.42;100273.80;1635369;87;20198;-76
2021/07/05 03:15:06;;;;;;;;;;;;;;;18.69;60.50;100275.31;1640500;86;20208;-76
2021/07/05 03:17:33;;;;;;;;;;;;;;;18.69;60.52;100273.16;1639219;87;20166;-76
2021/07/05 03:19:59;;;;;;;;;;;;;;;18.66;60.58;100279.41;1628645;87;20153;-76
2021/07/05 03:22:26;;;;;;;;;;;;;;;18.66;60.65;100272.86;1641132;86;20181;-76
2021/07/05 03:24:52;;;;;;;;;;;;;;;18.67;60.71;100271.93;1640297;86;20976;-76
2021/07/05 03:27:18;;;;;;;;;;;;;;;18.68;60.75;100274.09;1639816;86;20193;-76
2021/07/05 03:29:44;;;;;;;;;;;;;;;18.69;60.80;100268.77;1640211;86;20194;-76
2021/07/05 03:32:10;;;;;;;;;;;;;;;18.70;60.87;100267.84;1640398;86;20225;-76
2021/07/05 03:34:37;;;;;;;;;;;;;;;18.75;60.92;100272.33;1646057;85;20222;-76
2021/07/05 03:37:03;;;;;;;;;;;;;;;18.80;60.93;100272.07;1639960;86;20186;-76
2021/07/05 03:39:29;;;;;;;;;;;;;;;18.82;60.97;100274.98;1640371;86;20193;-77
2021/07/05 03:41:55;;;;;;;;;;;;;;;18.87;61.07;100279.12;1630223;86;20272;-76
2021/07/05 03:44:21;;;;;;;;;;;;;;;18.91;61.17;100280.65;1640331;85;20173;-75
2021/07/05 03:46:48;;;;;;;;;;;;;;;18.97;61.22;100281.16;1643258;86;20222;-75
2021/07/05 03:49:13;;;;;;;;;;;;;;;19.03;61.24;100285.20;1640246;87;20253;-75
2021/07/05 03:51:39;;;;;;;;;;;;;;;19.08;61.28;100291.03;1640054;87;20196;-75
2021/07/05 03:54:05;;;;;;;;;;;;;;;19.14;61.32;100293.31;1642197;86;20245;-75
2021/07/05 03:56:31;;;;;;;;;;;;;;;19.17;61.35;100295.30;1642418;87;20127;-75
2021/07/05 03:58:57;;;;;;;;;;;;;;;19.22;61.44;100298.13;1642471;86;20169;-75
2021/07/05 04:01:23;;;;;;;;;;;;;;;19.27;61.42;100289.50;1642635;87;20173;-75
2021/07/05 04:03:52;;;;;;;;;;;;;;;19.33;61.46;100298.33;1649781;86;20114;-75
2021/07/05 04:06:18;;;;;;;;;;;;;;;19.37;61.49;100304.62;1642543;87;20241;-75
2021/07/05 04:08:44;;;;;;;;;;;;;;;19.41;61.54;100304.82;1640196;87;20161;-76
2021/07/05 04:11:11;;;;;;;;;;;;;;;19.43;61.58;100302.95;1642120;86;20139;-76
2021/07/05 04:13:37;;;;;;;;;;;;;;;19.47;61.60;100304.47;1642153;86;20102;-76
2021/07/05 04:16:04;;;;;;;;;;;;;;;19.49;61.69;100300.45;1642593;86;20122;-76
2021/07/05 04:18:30;;;;;;;;;;;;;;;19.50;61.76;100298.20;1642421;87;20140;-76
2021/07/05 04:20:56;;;;;;;;;;;;;;;19.50;61.84;100300.83;1642574;86;20201;-76
2021/07/05 04:23:24;;;;;;;;;;;;;;;19.55;61.97;100304.06;1642763;86;20099;-76
2021/07/05 04:25:51;;;;;;;;;;;;;;;19.62;62.00;100308.02;1642023;86;20150;-76
2021/07/05 04:28:17;;;;;;;;;;;;;;;19.71;62.02;100306.64;1640307;86;20198;-76
2021/07/05 04:30:44;;;;;;;;;;;;;;;19.78;62.09;100308.78;1640466;87;20228;-76
2021/07/05 04:33:10;;;;;;;;;;;;;;;19.85;62.10;100309.27;1642559;86;20170;-76
2021/07/05 04:35:36;;;;;;;;;;;;;;;19.92;62.09;100310.59;1636545;87;20196;-76
2021/07/05 04:38:03;;;;;;;;;;;;;;;20.00;62.08;100318.02;1628104;87;20154;-76
2021/07/05 04:40:32;;;;;;;;;;;;;;;20.05;62.13;100314.17;1639793;86;20142;-75
2021/07/05 04:42:59;;;;;;;;;;;;;;;20.12;62.18;100312.03;1640342;87;20189;-75
2021/07/05 04:45:27;;;;;;;;;;;;;;;20.18;62.13;100312.13;1640663;86;20222;-75
2021/07/05 04:47:59;;;;;;;;;;;;;;;20.25;62.20;100314.76;1628838;87;20157;-75
2021/07/05 04:50:27;;;;;;;;;;;;;;;20.29;62.20;100308.35;1642496;86;20103;-75
2021/07/05 04:52:53;;;;;;;;;;;;;;;20.35;62.35;100300.94;1642380;86;20114;-75
2021/07/05 04:55:20;;;;;;;;;;;;;;;20.40;62.30;100298.91;1641706;87;20434;-75
2021/07/05 04:57:49;;;;;;;;;;;;;;;20.49;62.39;100296.19;1640810;87;20166;-75
2021/07/05 05:00:24;;;;;;;;;;;;;;;20.62;62.42;100297.11;1641560;86;20161;-75
2021/07/05 05:02:52;;;;;;;;;;;;;;;20.82;62.48;100297.14;1643703;86;20179;-75
2021/07/05 05:05:19;;;;;;;;;;;;;;;21.14;62.57;100295.09;1640962;85;20142;-75
2021/07/05 05:07:46;;;;;;;;;;;;;;;21.57;62.55;100297.06;1642823;87;20130;-76
2021/07/05 05:10:13;;;;;;;;;;;;;;;22.08;62.44;100293.17;1645753;86;20094;-76
2021/07/05 05:12:39;;;;;;;;;;;;;;;22.58;61.99;100294.89;1642089;86;20142;-76
2021/07/05 05:15:07;;;;;;;;;;;;;;;23.05;61.75;100284.05;1653877;85;20127;-76
2021/07/05 05:17:33;;;;;;;;;;;;;;;23.50;61.42;100280.26;1636725;87;20111;-76
2021/07/05 05:20:02;;;;;;;;;;;;;;;23.93;61.01;100279.17;1635805;87;20131;-76
2021/07/05 05:22:28;;;;;;;;;;;;;;;24.26;60.86;100279.23;1627316;86;20197;-76
2021/07/05 05:24:54;;;;;;;;;;;;;;;24.70;60.64;100275.69;1638722;87;20180;-75
2021/07/05 05:27:20;;;;;;;;;;;;;;;25.13;60.34;100280.16;1638149;86;20898;-77
2021/07/05 05:29:46;;;;;;;;;;;;;;;25.56;60.16;100284.52;1639479;86;20884;-77
2021/07/05 05:32:15;;;;;;;;;;;;;;;25.96;59.98;100281.54;1638505;86;20233;-77
2021/07/05 05:34:41;;;;;;;;;;;;;;;26.38;59.84;100274.83;1633409;86;20211;-77
2021/07/05 05:37:07;;;;;;;;;;;;;;;26.73;59.75;100271.70;1628543;86;20185;-77
2021/07/05 05:39:33;;;;;;;;;;;;;;;27.20;59.57;100277.22;1635302;86;20126;-77
2021/07/05 05:41:59;;;;;;;;;;;;;;;27.73;59.60;100278.09;1636916;87;20216;-77
2021/07/05 05:44:25;;;;;;;;;;;;;;;28.05;58.93;100276.41;1636131;87;20285;-77
2021/07/05 05:46:51;;;;;;;;;;;;;;;28.08;58.80;100271.61;1629452;86;20179;-77
2021/07/05 05:49:17;;;;;;;;;;;;;;;28.25;58.95;100271.37;1637198;87;20260;-77
2021/07/05 05:51:43;;;;;;;;;;;;;;;28.46;58.69;100271.14;1639737;86;20264;-77
2021/07/05 05:54:10;;;;;;;;;;;;;;;28.78;58.64;100274.65;1637347;86;20190;-77
2021/07/05 05:56:38;;;;;;;;;;;;;;;29.14;58.48;100273.69;1639571;86;20398;-77
2021/07/05 05:59:07;;;;;;;;;;;;;;;29.52;58.14;100272.56;1642223;86;20134;-76
2021/07/05 06:01:35;;;;;;;;;;;;;;;29.91;58.07;100274.80;1640494;86;20442;-77
2021/07/05 06:04:02;;;;;;;;;;;;;;;30.43;57.83;100272.91;1639269;86;20154;-76
2021/07/05 06:06:28;;;;;;;;;;;;;;;30.74;57.76;100283.88;1635309;86;20134;-76
2021/07/05 06:08:54;;;;;;;;;;;;;;;30.96;57.30;100279.76;1642034;86;20090;-76
2021/07/05 06:11:20;;;;;;;;;;;;;;;31.22;56.90;100283.13;1639696;87;20406;-76
2021/07/05 06:13:48;;;;;;;;;;;;;;;31.31;56.76;100282.64;1641684;86;20111;-76
2021/07/05 06:16:14;;;;;;;;;;;;;;;31.56;56.47;100280.80;1622530;86;20100;-76
2021/07/05 06:18:40;;;;;;;;;;;;;;;31.84;55.99;100282.11;1628867;87;20127;-76
2021/07/05 06:21:06;;;;;;;;;;;;;;;31.92;55.81;100279.93;1629829;86;20101;-76
2021/07/05 06:23:34;;;;;;;;;;;;;;;32.00;55.64;100281.25;1622695;86;20109;-76
2021/07/05 06:26:03;;;;;;;;;;;;;;;32.33;55.45;100288.68;1628797;86;20098;-76
2021/07/05 06:28:32;;;;;;;;;;;;;;;32.87;55.16;100283.41;1632218;86;20117;-76
2021/07/05 06:30:58;;;;;;;;;;;;;;;33.38;54.81;100287.73;1624728;87;20116;-76
2021/07/05 06:33:24;;;;;;;;;;;;;;;33.50;54.22;100284.95;1630764;86;20127;-76
2021/07/05 06:35:51;;;;;;;;;;;;;;;33.72;53.94;100282.74;1630375;86;20137;-76
2021/07/05 06:38:20;;;;;;;;;;;;;;;33.97;53.29;100287.36;1623379;86;380914;-76
2021/07/05 06:40:46;;;;;;;;;;;;;;;34.01;52.73;100286.48;1621473;87;20090;-76
2021/07/05 06:43:13;;;;;;;;;;;;;;;33.83;52.15;100286.83;1640097;86;20161;-76
2021/07/05 06:45:41;;;;;;;;;;;;;;;33.49;52.26;100289.99;1637535;87;20131;-76
2021/07/05 06:48:08;;;;;;;;;;;;;;;33.03;51.66;100286.48;1635573;87;20111;-76
2021/07/05 06:50:35;;;;;;;;;;;;;;;32.71;51.46;100283.49;1633579;87;20131;-76
2021/07/05 06:53:01;;;;;;;;;;;;;;;32.43;51.13;100282.61;1636635;87;20151;-76
2021/07/05 06:55:27;;;;;;;;;;;;;;;32.19;51.03;100276.84;1638621;87;20106;-76
2021/07/05 06:57:53;;;;;;;;;;;;;;;32.25;51.00;100276.66;1639325;86;20135;-76
2021/07/05 07:00:25;;;;;;;;;;;;;;;32.56;50.94;100272.69;1641009;86;20734;-76
2021/07/05 07:02:51;;;;;;;;;;;;;;;32.78;50.42;100275.92;1639927;86;20107;-76
2021/07/05 07:05:20;;;;;;;;;;;;;;;33.06;50.00;100278.09;1641270;86;20111;-76
2021/07/05 07:07:49;;;;;;;;;;;;;;;33.22;49.70;100277.47;1637838;86;20122;-76
2021/07/05 07:10:16;;;;;;;;;;;;;;;33.46;49.34;100283.66;1639857;86;20111;-76
2021/07/05 07:12:48;;;;;;;;;;;;;;;33.51;48.93;100270.03;1640666;86;20106;-76
2021/07/05 07:15:20;;;;;;;;;;;;;;;33.59;49.05;100269.63;1637104;86;20131;-76
2021/07/05 07:20:20;;;;;;;;;;;;;;;33.62;48.27;100262.56;1639009;86;20185;-76
2021/07/05 07:22:46;;;;;;;;;;;;;;;33.51;47.97;100264.67;1640380;87;20121;-76
2021/07/05 07:25:20;;;;;;;;;;;;;;;33.51;48.02;100263.84;1638070;87;20134;-76
2021/07/05 07:27:47;;;;;;;;;;;;;;;33.67;47.62;100263.69;1641346;87;20908;-76
2021/07/05 07:30:14;;;;;;;;;;;;;;;34.04;47.56;100264.64;1639735;86;20135;-77
2021/07/05 07:32:42;;;;;;;;;;;;;;;34.47;47.33;100254.90;1643742;86;20104;-77
2021/07/05 07:35:09;;;;;;;;;;;;;;;34.71;47.50;100260.45;1640040;86;20114;-77
2021/07/05 07:37:36;;;;;;;;;;;;;;;34.87;47.29;100260.72;1639043;86;20455;-77
2021/07/05 07:40:12;;;;;;;;;;;;;;;34.88;46.94;100259.70;1641006;87;20139;-77
2021/07/05 07:42:30;;;;;;;;;;;;;;;34.97;46.52;100262.59;1638584;87;20107;-77
2021/07/05 07:44:57;;;;;;;;;;;;;;;35.18;46.54;100254.53;1642187;87;20103;-77
2021/07/05 07:47:23;;;;;;;;;;;;;;;35.27;46.21;100250.68;1640909;87;20181;-77
2021/07/05 07:49:49;;;;;;;;;;;;;;;35.37;45.55;100249.84;1638337;87;20217;-77
2021/07/05 07:52:15;;;;;;;;;;;;;;;35.38;45.15;100244.78;1638904;87;20098;-77
2021/07/05 07:54:41;;;;;;;;;;;;;;;35.43;45.11;100232.92;1641061;87;20126;-77
2021/07/05 07:57:08;;;;;;;;;;;;;;;35.43;44.60;100235.61;1641069;86;20805;-77
2021/07/05 07:59:34;;;;;;;;;;;;;;;35.32;44.14;100237.52;1642409;86;20114;-77
2021/07/05 08:02:00;;;;;;;;;;;;;;;35.38;44.02;100229.99;1632922;87;20165;-77
2021/07/05 08:04:26;;;;;;;;;;;;;;;35.36;43.75;100225.32;1636126;86;20213;-77
2021/07/05 08:06:53;;;;;;;;;;;;;;;35.29;43.33;100229.81;1639623;86;20157;-77
2021/07/05 08:09:19;;;;;;;;;;;;;;;35.09;43.40;100225.61;1640183;87;20138;-77
2021/07/05 08:11:45;;;;;;;;;;;;;;;34.96;43.10;100229.52;1641271;87;20094;-77
2021/07/05 08:14:11;;;;;;;;;;;;;;;34.89;43.02;100223.75;1640716;87;20209;-77
2021/07/05 08:16:37;;;;;;;;;;;;;;;34.73;42.79;100224.83;1636815;86;20161;-77
2021/07/05 08:19:04;;;;;;;;;;;;;;;34.55;42.50;100235.98;1637153;87;20146;-77
2021/07/05 08:21:30;;;;;;;;;;;;;;;34.41;42.35;100231.48;1641363;87;20139;-77
2021/07/05 08:23:56;;;;;;;;;;;;;;;34.43;42.25;100227.59;1642209;86;20091;-77
2021/07/05 08:26:24;;;;;;;;;;;;;;;34.59;42.09;100223.84;1640624;87;20178;-77
2021/07/05 08:28:50;;;;;;;;;;;;;;;34.66;41.86;100227.95;1642321;86;20098;-77
2021/07/05 08:31:16;;;;;;;;;;;;;;;34.49;41.41;100224.66;1642188;86;20171;-77
2021/07/05 08:33:43;;;;;;;;;;;;;;;34.21;41.41;100223.18;1643702;86;20110;-77
2021/07/05 08:36:09;;;;;;;;;;;;;;;33.70;41.40;100231.64;1641777;86;20497;-77
2021/07/05 08:38:35;;;;;;;;;;;;;;;33.16;41.23;100233.14;1639371;86;20127;-77
2021/07/05 08:41:02;;;;;;;;;;;;;;;32.78;41.16;100226.87;1632635;86;20120;-77
2021/07/05 08:43:29;;;;;;;;;;;;;;;32.57;41.31;100234.20;1631962;86;20723;-77
2021/07/05 08:45:58;;;;;;;;;;;;;;;32.38;41.07;100231.45;1637874;86;20446;-77
2021/07/05 08:48:30;;;;;;;;;;;;;;;32.11;40.82;100230.05;1641798;86;20142;-77
2021/07/05 08:51:00;;;;;;;;;;;;;;;32.03;41.00;100220.72;1637030;86;20509;-77
2021/07/05 08:53:27;;;;;;;;;;;;;;;32.14;40.79;100219.01;1640335;86;20094;-77
2021/07/05 08:55:52;;;;;;;;;;;;;;;32.29;40.58;100217.77;1638929;86;20098;-77
2021/07/05 08:58:19;;;;;;;;;;;;;;;32.34;40.32;100222.61;1620443;87;20146;-77
2021/07/05 09:00:44;;;;;;;;;;;;;;;32.27;40.15;100221.13;1636582;86;20260;-77
2021/07/05 09:03:14;;;;;;;;;;;;;;;31.96;39.95;100225.09;1636438;86;20364;-77
2021/07/05 09:05:40;;;;;;;;;;;;;;;31.60;39.95;100219.32;1640324;86;20191;-77
2021/07/05 09:08:09;;;;;;;;;;;;;;;31.29;40.02;100221.86;1635655;86;20210;-77
2021/07/05 09:10:48;;;;;;;;;;;;;;;30.99;40.15;100215.83;1637552;86;20191;-77
2021/07/05 09:13:17;;;;;;;;;;;;;;;31.22;40.27;100219.02;1638785;86;20142;-77
2021/07/05 09:15:48;;;;;;;;;;;;;;;32.28;40.01;100220.13;1636316;86;20194;-77
2021/07/05 09:18:32;;;;;;;;;;;;;;;33.13;39.89;100226.29;1626022;87;20186;-77
2021/07/05 09:21:11;;;;;;;;;;;;;;;33.80;39.79;100222.31;1633217;86;20430;-76
2021/07/05 09:23:46;;;;;;;;;;;;;;;34.13;39.46;100224.11;1612723;87;20179;-76
2021/07/05 09:26:22;;;;;;;;;;;;;;;34.28;39.29;100219.23;1627730;86;20119;-76
2021/07/05 09:28:50;;;;;;;;;;;;;;;34.17;39.37;100211.98;1623426;87;20137;-76
2021/07/05 09:31:20;;;;;;;;;;;;;;;33.61;39.32;100216.66;1633794;87;20127;-76
2021/07/05 09:33:47;;;;;;;;;;;;;;;32.97;39.33;100213.53;1637056;86;20563;-76
2021/07/05 09:36:22;;;;;;;;;;;;;;;32.43;39.29;100212.19;1636483;86;20455;-76
2021/07/05 09:38:49;;;;;;;;;;;;;;;31.87;39.21;100201.55;1639471;86;20131;-76
2021/07/05 09:41:24;;;;;;;;;;;;;;;31.44;39.20;100206.81;1640606;87;20143;-76
2021/07/05 09:43:55;;;;;;;;;;;;;;;31.06;39.10;100205.66;1636983;86;20094;-75
2021/07/05 09:46:45;;;;;;;;;;;;;;;30.80;39.18;100204.46;1635144;86;20099;-75
2021/07/05 09:49:20;;;;;;;;;;;;;;;30.77;39.16;100199.95;1611064;87;20493;-75
2021/07/05 09:51:50;;;;;;;;;;;;;;;30.74;38.88;100198.45;1638984;87;20110;-75
2021/07/05 09:54:19;;;;;;;;;;;;;;;30.73;38.73;100191.94;1635214;86;20123;-75
2021/07/05 09:56:45;;;;;;;;;;;;;;;30.68;38.81;100191.09;1640466;87;20481;-75
2021/07/05 09:59:18;;;;;;;;;;;;;;;30.59;38.70;100196.11;1640416;87;20098;-75
2021/07/05 10:02:11;;;;;;;;;;;;;;;30.51;38.74;100196.89;1616816;87;20106;-75
2021/07/05 10:04:43;;;;;;;;;;;;;;;30.42;38.59;100195.20;1638568;87;20126;-75
2021/07/05 10:07:07;;;;;;;;;;;;;;;30.44;38.69;100190.53;1640111;87;20114;-75
2021/07/05 10:09:39;;;;;;;;;;;;;;;30.39;38.44;100188.02;1635565;87;20764;-75
2021/07/05 10:12:26;;;;;;;;;;;;;;;30.34;38.44;100188.50;1637807;87;20115;-75
2021/07/05 10:15:08;;;;;;;;;;;;;;;30.28;38.45;100188.66;1639061;87;20098;-75
2021/07/05 10:17:42;;;;;;;;;;;;;;;30.19;38.43;100180.78;1629815;86;20422;-75
2021/07/05 10:20:11;;;;;;;;;;;;;;;30.13;38.52;100182.30;1636841;87;20110;-75
2021/07/05 10:22:40;;;;;;;;;;;;;;;30.12;38.42;100185.13;1624229;87;20135;-75
2021/07/05 10:25:07;;;;;;;;;;;;;;;30.05;38.36;100185.42;1640123;86;20123;-75
2021/07/05 10:27:33;;;;;;;;;;;;;;;30.01;38.50;100185.41;1637716;87;20138;-75
2021/07/05 10:30:00;;;;;;;;;;;;;;;30.07;38.46;100186.09;1635417;86;20134;-75
2021/07/05 10:32:26;;;;;;;;;;;;;;;30.15;38.37;100180.30;1642422;86;20138;-75
2021/07/05 10:34:54;;;;;;;;;;;;;;;30.20;38.39;100181.12;1641584;87;20174;-75
2021/07/05 10:37:33;;;;;;;;;;;;;;;30.35;38.39;100182.67;1636308;87;20702;-75
2021/07/05 10:40:00;;;;;;;;;;;;;;;30.42;38.14;100176.52;1642053;87;20102;-75
2021/07/05 10:42:35;;;;;;;;;;;;;;;30.53;38.16;100173.55;1640161;87;20257;-77
2021/07/05 10:45:13;;;;;;;;;;;;;;;30.59;38.05;100171.59;1625818;86;20542;-76
2021/07/05 10:47:49;;;;;;;;;;;;;;;30.59;38.06;100169.42;1640321;86;20479;-76
2021/07/05 10:50:42;;;;;;;;;;;;;;;30.54;38.03;100171.72;1639930;86;21001;-76
2021/07/05 10:53:10;;;;;;;;;;;;;;;30.51;37.92;100167.54;1641794;86;20425;-76
2021/07/05 10:55:42;;;;;;;;;;;;;;;30.47;37.98;100174.70;1640719;86;20154;-76
2021/07/05 10:58:22;;;;;;;;;;;;;;;30.50;38.05;100173.04;1641017;86;20797;-76
2021/07/05 11:00:54;;;;;;;;;;;;;;;30.51;38.03;100164.88;1619186;87;20458;-76
2021/07/05 11:03:41;;;;;;;;;;;;;;;30.59;37.88;100167.59;1641841;86;20114;-76
2021/07/05 11:06:11;;;;;;;;;;;;;;;30.75;37.88;100165.41;1644242;86;20115;-76
2021/07/05 11:08:43;;;;;;;;;;;;;;;30.81;37.45;100162.58;1639803;87;20158;-76
2021/07/05 11:11:25;;;;;;;;;;;;;;;30.70;37.39;100162.91;1640633;86;20422;-76
2021/07/05 11:14:11;;;;;;;;;;;;;;;30.64;37.47;100160.42;1639801;87;20152;-76
2021/07/05 11:17:01;;;;;;;;;;;;;;;30.63;37.28;100159.25;1604941;87;39716;-76
2021/07/05 11:19:40;;;;;;;;;;;;;;;30.55;37.31;100158.20;1622128;87;20098;-76
2021/07/05 11:22:21;;;;;;;;;;;;;;;30.54;37.43;100161.88;1596346;87;20714;-76
2021/07/05 11:24:55;;;;;;;;;;;;;;;30.55;37.22;100158.70;1636715;86;20437;-76
2021/07/05 11:27:46;;;;;;;;;;;;;;;30.58;37.19;100160.58;1640347;86;20110;-77
2021/07/05 11:30:18;;;;;;;;;;;;;;;30.62;36.85;100159.75;1640923;87;20111;-76
2021/07/05 11:32:47;;;;;;;;;;;;;;;30.61;36.96;100150.91;1629874;86;20490;-76
2021/07/05 11:35:32;;;;;;;;;;;;;;;30.66;36.79;100144.24;1640342;87;20099;-76
2021/07/05 11:38:24;;;;;;;;;;;;;;;30.74;36.69;100158.91;1629961;87;20119;-76
2021/07/05 11:41:03;;;;;;;;;;;;;;;30.75;36.67;100160.07;1641725;86;20739;-76
2021/07/05 11:44:09;;;;;;;;;;;;;;;30.67;36.31;100158.76;1630116;87;20707;-76
2021/07/05 11:46:33;;;;;;;;;;;;;;;30.60;36.40;100152.41;1638816;87;20430;-76
2021/07/05 11:49:05;;;;;;;;;;;;;;;30.58;36.30;100154.41;1640008;87;20106;-76
2021/07/05 11:51:44;;;;;;;;;;;;;;;30.47;36.25;100153.35;1637357;87;20781;-76
2021/07/05 11:54:15;;;;;;;;;;;;;;;30.46;36.46;100148.52;1640532;86;20755;-77
2021/07/05 11:56:52;;;;;;;;;;;;;;;30.51;36.40;100149.36;1640137;86;20418;-77
2021/07/05 11:59:26;;;;;;;;;;;;;;;30.54;36.42;100151.70;1638145;86;20142;-76
2021/07/05 12:02:07;;;;;;;;;;;;;;;30.45;36.20;100144.67;1642111;86;20441;-76
2021/07/05 12:04:41;;;;;;;;;;;;;;;30.22;36.08;100148.45;1625491;87;20434;-76
2021/07/05 12:07:13;;;;;;;;;;;;;;;30.06;36.06;100160.42;1642176;87;20515;-76
2021/07/05 12:09:41;;;;;;;;;;;;;;;29.99;35.97;100157.53;1642311;86;20110;-76
2021/07/05 12:12:16;;;;;;;;;;;;;;;29.95;35.95;100159.69;1638117;87;20545;-76
2021/07/05 12:14:44;;;;;;;;;;;;;;;29.98;35.91;100163.37;1642188;86;20111;-76
2021/07/05 12:17:10;;;;;;;;;;;;;;;30.01;35.80;100166.24;1641942;86;20127;-76
2021/07/05 12:19:40;;;;;;;;;;;;;;;30.01;35.86;100163.58;1642228;86;20491;-76
2021/07/05 12:22:21;;;;;;;;;;;;;;;29.96;35.85;100161.36;1641892;86;20466;-76
2021/07/05 12:24:53;;;;;;;;;;;;;;;29.88;35.71;100161.81;1639729;87;20133;-76
2021/07/05 12:27:27;;;;;;;;;;;;;;;29.95;35.79;100153.52;1627962;87;20139;-76
2021/07/05 12:30:00;;;;;;;;;;;;;;;30.04;35.78;100162.42;1646768;85;20138;-76
2021/07/05 12:32:30;;;;;;;;;;;;;;;30.00;35.61;100160.57;1628237;86;20110;-76
2021/07/05 12:35:10;;;;;;;;;;;;;;;29.98;35.64;100161.20;1631533;86;20118;-76
2021/07/05 12:37:59;;;;;;;;;;;;;;;30.08;35.64;100156.61;1632279;86;20134;-76
2021/07/05 12:40:29;;;;;;;;;;;;;;;30.20;35.75;100147.28;1638641;86;20725;-76
2021/07/05 12:43:13;;;;;;;;;;;;;;;30.35;35.73;100152.83;1622430;86;20147;-76
2021/07/05 12:45:44;;;;;;;;;;;;;;;30.54;35.63;100149.03;1637949;86;20099;-77
2021/07/05 12:48:15;;;;;;;;;;;;;;;30.61;35.33;100152.24;1632762;86;20138;-76